KCGF

Cuyahoga County Airport

Cleveland, Ohio, USA
METAR KCGF 220045Z 03008KT 10SM BKN060 OVC100 01/M02 A3059
Observed Flight Rules
Feb-22 @ 00:45 UTC (4 hours ago) Visual Flight Rules
Wind Visibility Clouds
30° at 8 knots 10 miles
  • Broken at 6,000' AGL
  • Overcast at 10,000' AGL
Temperatures Readings
Current 1°C / 34°F
Dewpoint -2°C / 28°F
Humidity 81%
Altimeter 30.59" Hg
Pressure 1036 hPa
Elevation 268
METAR KCGF 220045Z 03008KT 10SM BKN060 OVC100 01/M02 A3059
Observed Flight Rules
Feb-22 @ 00:45 UTC
(4 hours ago)
VFR
Wind Visibility
30° at 8 knots 10 miles
Clouds
  • Broken at 6,000' AGL
  • Overcast at 10,000' AGL
Temperature Dewpoint
1°C / 34°F -2°C / 28°F
Humidity Altimeter Pressure
81% 30.59" Hg 1036 hPa